Bei Facebook empfehlenBei Twitter postenGoogle plusPinterest

Das Wetter im Erzgebirge am 02.07.2016

Wetter und Klima am 02.07.2016 Holzhau im Erzgebirge (630m ü.NN)
Letzte gemessene Temperatur und Uhrzeit der Messung23:45:00 Uhr8.60 °C
Temperatur (Maximum / Höchstwert) und Uhrzeit der Messung10:30:00 Uhr25.10 °C
Temperatur (Minimum / Tiefstwert) und Uhrzeit der Messung23:30:008.50 °C
Errechneter Absolutwert der Temperaturschwankungen zwischen Tmin und Tmax des Tages16.60 K
Errechnete Tagesmitteltemperatur15.73125 °C
Gesamt - Niederschlag des Tages (in flüssiger Form)15.54 Liter / m²
Luftdruck (Maximum / Höchstwert) und Zeitpunkt der Messung23:45:00 Uhr1015.10 hPa
Luftdruck (Minimum / Tiefstwert) und Zeitpunkt der Messung10:15:00 Uhr1010.50 hPa
Errechneter Absolutwert der Luftdruckschwankungen des Tages4.60 hPa
Höchste gemessene Windgeschwindigkeit und Uhrzeit der Messung23:45:00 Uhr0.00 km/h
Errechnete Windhäufigkeit in Relation zu den Messwerten des Tages0.00000 %
Niedrigste Windkühle (Windchill) und Zeitpunkt der Messung23:30:00 Uhr8.50 °C
Taupunkt (Maximum / Höchstwert) und Uhrzeit der Messung07:45:00 Uhr20.50 °C
Taupunkt (Minimum / Tiefstwert) und Uhrzeit der Messung23:30:007.40 °C
Anzahl der automatisch eingelesenen Messwerte 96

Detaillierte Wetter- und Klima- Messwerte für den 02.07.2016 in Holzhau im Erzgebirge (630m ü.NN)
ZeitTemperaturLuftdruckRel. LuftfeuchteWindWindrichtungWindchillTaupunktNiederschlag l/m²
23:45:008.60 °C1015.10 hPa93.00 %7.50 °C15.54
23:30:008.50 °C1014.90 hPa93.00 %7.40 °C15.54
23:15:008.80 °C1014.90 hPa93.00 %7.70 °C15.54
23:00:009.20 °C1014.70 hPa93.00 %8.10 °C15.54
22:45:009.30 °C1014.90 hPa93.00 %8.20 °C15.54
22:30:009.50 °C1014.80 hPa93.00 %8.40 °C15.54
22:15:009.80 °C1014.60 hPa92.00 %8.60 °C15.54
22:00:0010.10 °C1014.40 hPa92.00 %8.90 °C15.54
21:45:0010.40 °C1014.30 hPa93.00 %9.30 °C15.54
21:30:0010.90 °C1014.20 hPa93.00 %9.80 °C15.54
21:15:0011.10 °C1014.10 hPa93.00 %10.00 °C15.54
21:00:0011.50 °C1014.10 hPa93.00 %10.40 °C15.54
20:45:0011.80 °C1014.00 hPa93.00 %10.70 °C15.54
20:30:0011.60 °C1013.80 hPa93.00 %10.50 °C15.54
20:15:0011.80 °C1013.80 hPa93.00 %10.70 °C15.54
20:00:0012.00 °C1013.40 hPa92.00 %10.70 °C15.54
19:45:0012.00 °C1013.20 hPa92.00 %10.70 °C15.54
19:30:0011.90 °C1013.00 hPa92.00 %10.60 °C15.54
19:15:0012.00 °C1013.10 hPa92.00 %10.70 °C15.54
19:00:0012.30 °C1013.10 hPa92.00 %11.00 °C15.02
18:45:0012.70 °C1012.90 hPa92.00 %11.40 °C15.02
18:30:0013.60 °C1012.70 hPa92.00 %12.30 °C15.02
18:15:0014.20 °C1012.20 hPa91.00 %12.80 °C13.47
18:00:0014.40 °C1011.80 hPa91.00 %13.00 °C12.95
17:45:0014.70 °C1011.80 hPa91.00 %13.20 °C12.95
17:30:0014.80 °C1011.70 hPa91.00 %13.30 °C12.95
17:15:0014.90 °C1011.70 hPa91.00 %13.40 °C12.43
17:00:0014.90 °C1011.70 hPa90.00 %13.30 °C12.43
16:45:0014.90 °C1011.90 hPa90.00 %13.30 °C12.43
16:30:0014.90 °C1011.90 hPa90.00 %13.30 °C12.43
16:15:0014.90 °C1012.10 hPa89.00 %13.10 °C11.91
16:00:0015.70 °C1012.10 hPa88.00 %13.70 °C11.91
15:45:0016.70 °C1012.00 hPa88.00 %14.70 °C11.40
15:30:0016.90 °C1011.80 hPa87.00 %14.70 °C11.40
15:15:0017.20 °C1011.60 hPa87.00 %15.00 °C11.40
15:00:0017.60 °C1011.60 hPa88.00 %15.60 °C11.40
14:45:0017.60 °C1011.50 hPa88.00 %15.60 °C11.40
14:30:0017.30 °C1011.60 hPa89.00 %15.50 °C11.40
14:15:0017.30 °C1011.60 hPa88.00 %15.30 °C11.40
14:00:0017.40 °C1011.60 hPa86.00 %15.00 °C11.40
13:45:0019.00 °C1011.70 hPa84.00 %16.20 °C9.32
13:30:0020.90 °C1011.40 hPa86.00 %18.50 °C7.77
13:15:0020.80 °C1011.20 hPa89.00 %18.90 °C7.77
13:00:0019.10 °C1011.20 hPa90.00 %17.40 °C7.77
12:45:0017.80 °C1011.40 hPa88.00 %15.80 °C7.77
12:30:0017.10 °C1011.20 hPa86.00 %14.70 °C7.25
12:15:0017.00 °C1011.30 hPa83.00 %14.10 °C7.25
12:00:0017.30 °C1011.70 hPa80.00 %13.80 °C6.22
11:45:0019.60 °C1011.70 hPa74.00 %14.80 °C4.14
11:30:0022.20 °C1011.20 hPa68.00 %16.00 °C 
11:15:0022.70 °C1011.10 hPa67.00 %16.30 °C 
11:00:0023.90 °C1010.70 hPa65.00 %16.90 °C 
10:45:0024.60 °C1010.60 hPa64.00 %17.30 °C 
10:30:0025.10 °C1010.60 hPa65.00 %18.10 °C 
10:15:0024.30 °C1010.50 hPa66.00 %17.50 °C 
10:00:0023.80 °C1010.60 hPa67.00 %17.30 °C 
09:45:0023.90 °C1010.60 hPa70.00 %18.10 °C 
09:30:0023.80 °C1010.60 hPa71.00 %18.20 °C 
09:15:0023.40 °C1010.80 hPa71.00 %17.80 °C 
09:00:0023.20 °C1010.90 hPa72.00 %17.90 °C 
08:45:0022.60 °C1010.90 hPa75.00 %17.90 °C 
08:30:0022.40 °C1011.00 hPa75.00 %17.80 °C 
08:15:0022.80 °C1011.10 hPa76.00 %18.30 °C 
08:00:0023.30 °C1010.90 hPa78.00 %19.20 °C 
07:45:0023.00 °C1010.90 hPa86.00 %20.50 °C 
07:30:0021.30 °C1010.80 hPa92.00 %19.90 °C 
07:15:0018.50 °C1010.80 hPa94.00 %17.50 °C 
07:00:0016.10 °C1010.80 hPa93.00 %15.00 °C 
06:45:0015.60 °C1011.00 hPa93.00 %14.50 °C 
06:30:0015.10 °C1011.10 hPa92.00 %13.80 °C 
06:15:0015.10 °C1011.20 hPa92.00 %13.80 °C 
06:00:0014.90 °C1011.50 hPa92.00 %13.60 °C 
05:45:0015.00 °C1011.70 hPa92.00 %13.70 °C 
05:30:0014.90 °C1011.30 hPa92.00 %13.60 °C 
05:15:0014.10 °C1011.30 hPa92.00 %12.80 °C 
05:00:0013.60 °C1011.40 hPa92.00 %12.30 °C 
04:45:0013.70 °C1011.40 hPa92.00 %12.40 °C 
04:30:0013.60 °C1011.60 hPa92.00 %12.30 °C 
04:15:0013.50 °C1011.90 hPa92.00 %12.20 °C 
04:00:0013.30 °C1012.10 hPa92.00 %12.00 °C 
03:45:0013.30 °C1012.10 hPa91.00 %11.90 °C 
03:30:0012.90 °C1012.10 hPa91.00 %11.50 °C 
03:15:0012.90 °C1012.20 hPa91.00 %11.50 °C 
03:00:0012.80 °C1012.40 hPa90.00 %11.20 °C 
02:45:0012.40 °C1012.50 hPa90.00 %10.80 °C 
02:30:0012.50 °C1012.50 hPa90.00 %10.90 °C 
02:15:0012.80 °C1012.60 hPa89.00 %11.00 °C 
02:00:0012.90 °C1012.90 hPa89.00 %11.10 °C 
01:45:0013.30 °C1013.10 hPa89.00 %11.50 °C 
01:30:0013.50 °C1013.10 hPa88.00 %11.60 °C 
01:15:0013.80 °C1013.20 hPa88.00 %11.80 °C 
01:00:0013.90 °C1013.30 hPa88.00 %11.90 °C 
00:45:0013.80 °C1013.30 hPa88.00 %11.80 °C 
00:30:0013.80 °C1013.30 hPa87.00 %11.70 °C 
00:15:0013.80 °C1013.40 hPa86.00 %11.50 °C 
00:00:0014.20 °C1013.50 hPa86.00 %11.90 °C 

Permanenter Link zu dieser Seite: Wetter im Erzgebirge am 02.07.2016
Performance-Info: Die Erstellung der Seite / Statistik(en) / Tabelle(n) erforderte 5 Datenbankserver-Abfrage(n) und dauerte 101 Millisekunden. (Dieser Messwert ist von der Gesamt-Auslastung des Servers abhängig.)
Erzgebirge - Wetter | Erzgebirge - Wetter (Mobilgeräte) | Komplette Klimadatenbank